createdAt,value
2022-08-17T00:00:34.981Z,39.33
2022-08-17T00:03:10.241Z,39.58
2022-08-17T00:05:50.352Z,43.40
2022-08-17T00:08:20.191Z,42.08
2022-08-17T00:10:48.103Z,35.75
2022-08-17T00:13:25.746Z,20.73
2022-08-17T00:15:55.916Z,14.55
2022-08-17T00:19:06.301Z,16.27
2022-08-17T00:21:11.617Z,16.27
2022-08-17T00:23:47.687Z,18.10
2022-08-17T00:26:34.865Z,25.00
2022-08-17T00:29:07.230Z,31.60
2022-08-17T00:31:35.624Z,27.40
2022-08-17T00:34:03.327Z,23.42
2022-08-17T00:36:30.209Z,24.65
2022-08-17T00:38:57.087Z,23.08
2022-08-17T00:41:27.234Z,27.20
2022-08-17T00:44:01.700Z,40.20
2022-08-17T00:46:32.235Z,36.70
2022-08-17T00:48:59.804Z,37.35
2022-08-17T00:51:32.392Z,37.38
2022-08-17T00:54:13.179Z,39.15
2022-08-17T00:56:44.617Z,43.97
2022-08-17T00:59:17.369Z,48.05
2022-08-17T01:01:46.019Z,47.97
2022-08-17T01:04:14.041Z,45.72
2022-08-17T01:06:42.829Z,43.72
2022-08-17T01:09:09.826Z,40.80
2022-08-17T01:11:39.500Z,37.42
2022-08-17T01:14:08.899Z,34.05
2022-08-17T01:16:37.458Z,35.17
2022-08-17T01:19:16.861Z,38.25
2022-08-17T01:21:46.681Z,39.92
2022-08-17T01:24:14.667Z,99.50
2022-08-17T01:26:44.156Z,109.18
2022-08-17T01:29:12.686Z,37.63
2022-08-17T01:31:44.416Z,94.95
2022-08-17T01:34:14.388Z,78.72
2022-08-17T01:36:45.864Z,35.40
2022-08-17T01:39:23.251Z,36.67
2022-08-17T01:41:53.547Z,31.65
2022-08-17T01:44:22.118Z,29.50
2022-08-17T01:46:49.494Z,28.52
2022-08-17T01:49:16.396Z,31.83
2022-08-17T01:51:43.422Z,33.55
2022-08-17T01:54:13.721Z,32.03
2022-08-17T01:56:44.245Z,46.28
2022-08-17T01:59:16.082Z,103.43
2022-08-17T02:01:43.617Z,43.72
2022-08-17T02:04:11.969Z,55.78
2022-08-17T02:06:47.038Z,40.05
2022-08-17T02:09:25.304Z,29.50
2022-08-17T02:11:54.825Z,27.73
2022-08-17T02:14:24.522Z,27.08
2022-08-17T02:16:51.871Z,27.35
2022-08-17T02:19:18.856Z,26.55
2022-08-17T02:21:48.259Z,25.75
2022-08-17T02:24:59.778Z,25.23
2022-08-17T02:27:07.169Z,33.70
2022-08-17T02:29:34.032Z,23.27
2022-08-17T02:32:01.905Z,24.20
2022-08-17T02:34:30.002Z,25.77
2022-08-17T02:36:56.889Z,25.98
2022-08-17T02:39:24.038Z,36.25
2022-08-17T02:42:00.981Z,35.28
2022-08-17T02:44:39.075Z,44.72
2022-08-17T02:47:08.745Z,33.42
2022-08-17T02:49:36.226Z,30.35
2022-08-17T02:52:05.788Z,36.17
2022-08-17T02:54:41.806Z,30.67
2022-08-17T02:57:10.587Z,31.13
2022-08-17T02:59:46.768Z,31.77
2022-08-17T03:02:15.723Z,28.88
2022-08-17T03:04:42.593Z,29.63
2022-08-17T03:07:09.572Z,29.70
2022-08-17T03:09:36.356Z,35.03
2022-08-17T03:12:12.940Z,30.08
2022-08-17T03:14:42.005Z,27.17
2022-08-17T03:17:15.881Z,26.45
2022-08-17T03:19:44.611Z,28.55
2022-08-17T03:22:36.623Z,33.75
2022-08-17T03:24:58.685Z,34.25
2022-08-17T03:27:25.597Z,31.70
2022-08-17T03:29:52.386Z,33.20
2022-08-17T03:32:20.751Z,33.25
2022-08-17T03:34:47.810Z,33.75
2022-08-17T03:37:15.051Z,32.65
2022-08-17T03:39:42.824Z,36.67
2022-08-17T03:42:32.040Z,42.55
2022-08-17T03:45:01.411Z,48.08
2022-08-17T03:47:46.888Z,179.07
2022-08-17T03:50:33.144Z,188.98
2022-08-17T03:53:21.285Z,136.93
2022-08-17T03:56:06.663Z,182.85
2022-08-17T03:58:33.875Z,48.95
2022-08-17T04:01:00.723Z,103.78
2022-08-17T04:03:27.712Z,109.13
2022-08-17T04:05:54.585Z,183.82
2022-08-17T04:08:24.154Z,280.15
2022-08-17T04:10:53.658Z,352.75
2022-08-17T04:13:24.190Z,445.17
2022-08-17T04:15:52.521Z,416.33
2022-08-17T04:18:20.185Z,101.55
2022-08-17T04:20:47.195Z,166.30
2022-08-17T04:23:19.134Z,60.90
2022-08-17T04:25:50.255Z,64.20
2022-08-17T04:28:20.727Z,77.00
2022-08-17T04:30:48.392Z,153.02
2022-08-17T04:33:21.836Z,129.85
2022-08-17T04:35:51.386Z,143.10
2022-08-17T04:38:21.630Z,236.18
2022-08-17T04:41:07.520Z,243.07
2022-08-17T04:43:36.089Z,451.75
2022-08-17T04:46:05.900Z,194.35
2022-08-17T04:48:37.438Z,57.25
2022-08-17T04:51:16.867Z,55.30
2022-08-17T04:53:53.832Z,50.63
2022-08-17T04:56:22.210Z,59.42
2022-08-17T04:58:50.836Z,64.00
2022-08-17T05:01:23.769Z,158.45
2022-08-17T05:03:53.077Z,213.93
2022-08-17T05:06:20.734Z,267.10
2022-08-17T05:08:47.582Z,77.03
2022-08-17T05:11:14.820Z,59.97
2022-08-17T05:13:41.832Z,59.92
2022-08-17T05:16:09.214Z,65.85
2022-08-17T05:18:37.325Z,66.10
2022-08-17T05:21:05.509Z,64.13
2022-08-17T05:23:42.572Z,62.67
2022-08-17T05:26:15.788Z,64.70
2022-08-17T05:28:52.816Z,64.45
2022-08-17T05:31:21.106Z,68.22
2022-08-17T05:33:49.468Z,66.55
2022-08-17T05:36:43.265Z,65.97
2022-08-17T05:39:03.823Z,68.38
2022-08-17T05:41:30.598Z,67.05
2022-08-17T05:43:57.445Z,66.00
2022-08-17T05:46:28.581Z,65.88
2022-08-17T05:49:03.728Z,67.25
2022-08-17T05:51:47.738Z,69.20
2022-08-17T05:54:48.232Z,67.22
2022-08-17T05:57:43.590Z,66.25
2022-08-17T06:00:30.720Z,67.88
2022-08-17T06:03:15.344Z,63.90
2022-08-17T06:05:48.254Z,69.32
2022-08-17T06:08:30.437Z,72.88
2022-08-17T06:11:35.360Z,72.38
2022-08-17T06:14:06.855Z,72.22
2022-08-17T06:16:41.137Z,69.75
2022-08-17T06:19:13.955Z,67.88
2022-08-17T06:21:45.225Z,67.97
2022-08-17T06:24:24.294Z,68.47
2022-08-17T06:26:52.239Z,68.72
2022-08-17T06:29:57.912Z,68.22
2022-08-17T06:32:25.288Z,66.40
2022-08-17T06:34:53.520Z,69.40
2022-08-17T06:37:35.840Z,67.28
2022-08-17T06:40:27.871Z,68.47
2022-08-17T06:43:16.443Z,73.38
2022-08-17T06:45:54.253Z,74.55
2022-08-17T06:48:54.179Z,66.53
2022-08-17T06:51:27.311Z,65.25
2022-08-17T06:54:02.774Z,66.22
2022-08-17T06:56:52.731Z,65.57
2022-08-17T06:59:26.849Z,65.30
2022-08-17T07:02:29.219Z,61.70
2022-08-17T07:05:10.076Z,63.50
2022-08-17T07:07:57.982Z,61.78
2022-08-17T07:10:27.541Z,62.90
2022-08-17T07:12:57.642Z,67.03
2022-08-17T07:15:38.845Z,67.47
2022-08-17T07:18:05.705Z,77.38
2022-08-17T07:20:33.495Z,74.13
2022-08-17T07:23:12.397Z,73.13
2022-08-17T07:25:39.222Z,73.03
2022-08-17T07:28:07.786Z,76.47
2022-08-17T07:30:49.239Z,74.82
2022-08-17T07:33:25.104Z,76.05
2022-08-17T07:35:53.214Z,75.43
2022-08-17T07:38:27.768Z,82.57
2022-08-17T07:41:03.659Z,82.05
2022-08-17T07:43:39.310Z,85.55
2022-08-17T07:46:38.878Z,94.50
2022-08-17T07:49:08.685Z,106.22
2022-08-17T07:51:37.931Z,114.22
2022-08-17T07:54:22.589Z,134.85
2022-08-17T07:56:54.429Z,125.43
2022-08-17T07:59:24.263Z,119.65
2022-08-17T08:02:08.063Z,111.03
2022-08-17T08:04:59.730Z,115.93
2022-08-17T08:07:42.524Z,114.43
2022-08-17T08:10:16.850Z,105.32
2022-08-17T08:12:49.026Z,103.97
2022-08-17T08:15:34.390Z,101.28
2022-08-17T08:18:04.365Z,102.97
2022-08-17T08:20:52.349Z,103.97
2022-08-17T08:23:39.561Z,107.63
2022-08-17T08:26:31.663Z,109.15
2022-08-17T08:29:28.361Z,124.13
2022-08-17T08:32:07.683Z,109.75
2022-08-17T08:35:01.287Z,105.18
2022-08-17T08:38:16.956Z,109.10
2022-08-17T08:40:55.355Z,99.53
2022-08-17T08:43:29.183Z,111.15
2022-08-17T08:46:15.454Z,110.60
2022-08-17T08:49:11.819Z,119.10
2022-08-17T08:51:59.004Z,106.53
2022-08-17T08:54:28.342Z,110.88
2022-08-17T08:57:23.903Z,103.28
2022-08-17T09:00:13.317Z,106.22
2022-08-17T09:03:05.301Z,103.72
2022-08-17T09:05:35.046Z,100.72
2022-08-17T09:08:07.867Z,94.40
2022-08-17T09:10:59.845Z,91.47
2022-08-17T09:13:54.465Z,87.82
2022-08-17T09:16:36.805Z,88.68
2022-08-17T09:19:21.258Z,86.43
2022-08-17T09:21:55.620Z,79.20
2022-08-17T09:24:33.451Z,80.93
2022-08-17T09:27:28.842Z,68.60
2022-08-17T09:30:02.674Z,64.70
2022-08-17T09:32:49.986Z,60.47
2022-08-17T09:35:22.875Z,51.80
2022-08-17T09:38:18.189Z,51.92
2022-08-17T09:41:13.904Z,48.90
2022-08-17T09:43:49.750Z,47.20
2022-08-17T09:46:16.478Z,47.58
2022-08-17T09:49:09.694Z,49.25
2022-08-17T09:51:42.111Z,49.90
2022-08-17T09:54:39.283Z,49.30
2022-08-17T09:57:31.513Z,46.08
2022-08-17T10:00:11.227Z,39.35
2022-08-17T10:02:41.716Z,38.70
2022-08-17T10:05:22.355Z,28.33
2022-08-17T10:08:09.419Z,26.67
2022-08-17T10:10:58.808Z,33.70
2022-08-17T10:13:52.909Z,34.30
2022-08-17T10:16:27.595Z,33.00
2022-08-17T10:19:16.268Z,30.75
2022-08-17T10:22:32.509Z,31.30
2022-08-17T10:25:22.911Z,36.63
2022-08-17T10:27:56.602Z,41.78
2022-08-17T10:30:26.801Z,38.30
2022-08-17T10:32:59.623Z,45.58
2022-08-17T10:35:38.794Z,45.28
2022-08-17T10:38:37.897Z,43.65
2022-08-17T10:41:40.562Z,32.65
2022-08-17T10:44:49.984Z,33.88
2022-08-17T10:47:19.122Z,33.45
2022-08-17T10:49:49.664Z,35.55
2022-08-17T10:52:19.561Z,38.65
2022-08-17T10:54:59.493Z,36.47
2022-08-17T10:57:29.392Z,37.22
2022-08-17T10:59:58.224Z,29.10
2022-08-17T11:02:31.443Z,28.30
2022-08-17T11:05:14.522Z,30.75
2022-08-17T11:08:05.472Z,27.13
2022-08-17T11:10:55.891Z,23.10
2022-08-17T11:13:28.314Z,28.05
2022-08-17T11:16:24.098Z,31.10
2022-08-17T11:19:24.014Z,35.13
2022-08-17T11:22:09.004Z,30.70
2022-08-17T11:24:39.871Z,29.40
2022-08-17T11:27:27.445Z,33.60
2022-08-17T11:30:02.204Z,36.80
2022-08-17T11:32:48.662Z,32.95
2022-08-17T11:35:22.911Z,28.25
2022-08-17T11:38:04.936Z,32.20
2022-08-17T11:40:43.157Z,31.38
2022-08-17T11:43:45.466Z,35.03
2022-08-17T11:46:51.771Z,32.38
2022-08-17T11:50:11.606Z,29.73
2022-08-17T11:52:44.417Z,30.92
2022-08-17T11:55:40.573Z,29.73
2022-08-17T11:58:45.115Z,29.80
2022-08-17T12:01:22.838Z,28.90
2022-08-17T12:03:57.068Z,25.90
2022-08-17T12:06:30.437Z,27.23
2022-08-17T12:09:20.379Z,25.95
2022-08-17T12:12:12.373Z,25.88
2022-08-17T12:17:40.717Z,25.58
2022-08-17T12:20:40.261Z,23.85
2022-08-17T12:23:30.850Z,25.17
2022-08-17T12:26:09.077Z,23.98
2022-08-17T12:28:38.862Z,24.05
2022-08-17T12:31:21.996Z,24.17
2022-08-17T12:33:51.778Z,26.08
2022-08-17T12:36:28.273Z,30.52
2022-08-17T12:39:14.611Z,30.13
2022-08-17T12:41:51.027Z,31.05
2022-08-17T12:44:24.284Z,27.52
2022-08-17T12:46:56.082Z,30.45
2022-08-17T12:49:25.222Z,27.83
2022-08-17T12:52:00.501Z,31.33
2022-08-17T12:54:42.028Z,29.58
2022-08-17T12:57:27.914Z,29.27
2022-08-17T12:59:59.152Z,28.98
2022-08-17T13:02:37.524Z,31.38
2022-08-17T13:05:05.754Z,28.70
2022-08-17T13:07:44.826Z,29.10
2022-08-17T13:10:31.643Z,29.52
2022-08-17T13:13:04.855Z,28.20
2022-08-17T13:15:44.404Z,29.58
2022-08-17T13:18:33.640Z,26.17
2022-08-17T13:21:01.194Z,23.40
2022-08-17T13:23:29.966Z,29.08
2022-08-17T13:26:14.586Z,29.55
2022-08-17T13:28:49.931Z,30.13
2022-08-17T13:31:44.065Z,29.92
2022-08-17T13:34:33.308Z,24.55
2022-08-17T13:37:26.135Z,28.20
2022-08-17T13:40:00.054Z,28.88
2022-08-17T13:42:34.927Z,29.60
2022-08-17T13:45:34.799Z,29.13
2022-08-17T13:48:08.766Z,32.13
2022-08-17T13:50:41.176Z,28.85
2022-08-17T13:53:35.582Z,31.35
2022-08-17T13:56:40.432Z,33.03
2022-08-17T13:59:52.749Z,29.48
2022-08-17T14:02:19.853Z,32.17
2022-08-17T14:04:47.940Z,33.08
2022-08-17T14:07:16.045Z,32.65
2022-08-17T14:09:57.749Z,32.47
2022-08-17T14:12:27.339Z,33.97
2022-08-17T14:14:56.333Z,34.20
2022-08-17T14:17:24.512Z,30.20
2022-08-17T14:19:51.899Z,30.02
2022-08-17T14:22:30.972Z,28.38
2022-08-17T14:24:59.360Z,28.40
2022-08-17T14:27:28.178Z,27.50
2022-08-17T14:29:55.874Z,28.00
2022-08-17T14:32:29.271Z,25.25
2022-08-17T14:34:57.830Z,24.88
2022-08-17T14:37:28.019Z,25.77
2022-08-17T14:39:56.720Z,26.17
2022-08-17T14:42:25.300Z,26.85
2022-08-17T14:44:56.309Z,27.77
2022-08-17T14:47:23.207Z,27.17
2022-08-17T14:49:50.131Z,26.13
2022-08-17T14:52:21.785Z,27.27
2022-08-17T14:54:51.299Z,25.92
2022-08-17T14:57:33.354Z,27.88
2022-08-17T15:00:02.149Z,27.80
2022-08-17T15:02:30.883Z,29.33
2022-08-17T15:05:00.809Z,28.48
2022-08-17T15:07:30.436Z,24.67
2022-08-17T15:10:02.124Z,25.58
2022-08-17T15:12:34.685Z,26.27
2022-08-17T15:15:04.455Z,27.10
2022-08-17T15:17:44.191Z,29.05
2022-08-17T15:20:20.316Z,30.08
2022-08-17T15:22:54.918Z,31.58
2022-08-17T15:25:22.442Z,32.10
2022-08-17T15:27:49.557Z,32.30
2022-08-17T15:30:17.733Z,34.50
2022-08-17T15:32:46.865Z,33.63
2022-08-17T15:35:26.917Z,32.00
2022-08-17T15:38:10.775Z,30.35
2022-08-17T15:40:42.102Z,28.95
2022-08-17T15:43:12.032Z,30.98
2022-08-17T15:45:39.637Z,28.73
2022-08-17T15:48:07.031Z,28.73
2022-08-17T15:50:33.916Z,27.42
2022-08-17T15:53:03.257Z,27.83
2022-08-17T15:55:31.565Z,28.77
2022-08-17T15:57:58.856Z,33.17
2022-08-17T16:00:28.358Z,30.27
2022-08-17T16:03:42.582Z,27.02
2022-08-17T16:05:43.510Z,26.15
2022-08-17T16:08:11.123Z,25.05
2022-08-17T16:10:38.259Z,25.05
2022-08-17T16:13:05.231Z,23.98
2022-08-17T16:15:44.038Z,23.77
2022-08-17T16:18:11.279Z,25.60
2022-08-17T16:20:38.306Z,25.95
2022-08-17T16:23:05.802Z,24.80
2022-08-17T16:25:38.353Z,24.15
2022-08-17T16:28:20.098Z,22.25
2022-08-17T16:30:46.986Z,19.90
2022-08-17T16:33:15.065Z,19.60
2022-08-17T16:35:42.164Z,19.98
2022-08-17T16:38:09.504Z,22.98
2022-08-17T16:40:36.582Z,26.25
2022-08-17T16:43:11.973Z,24.77
2022-08-17T16:45:40.686Z,32.83
2022-08-17T16:48:09.452Z,45.63
2022-08-17T16:50:37.249Z,27.33
2022-08-17T16:53:10.948Z,25.67
2022-08-17T16:55:38.487Z,21.33
2022-08-17T16:58:06.932Z,21.27
2022-08-17T17:00:34.059Z,22.27
2022-08-17T17:03:19.451Z,22.35
2022-08-17T17:06:27.776Z,23.35
2022-08-17T17:09:06.941Z,23.50
2022-08-17T17:11:40.733Z,23.77
2022-08-17T17:14:14.183Z,23.98
2022-08-17T17:17:11.942Z,23.30
2022-08-17T17:19:45.519Z,21.95
2022-08-17T17:22:39.555Z,22.30
2022-08-17T17:25:15.513Z,22.30
2022-08-17T17:27:54.410Z,21.63
2022-08-17T17:30:47.392Z,21.30
2022-08-17T17:33:23.431Z,21.25
2022-08-17T17:36:06.917Z,22.15
2022-08-17T17:38:47.616Z,21.45
2022-08-17T17:41:29.050Z,22.55
2022-08-17T17:44:12.266Z,24.10
2022-08-17T17:46:48.423Z,22.88
2022-08-17T17:49:17.773Z,22.48
2022-08-17T17:52:11.117Z,22.02
2022-08-17T17:54:47.951Z,22.50
2022-08-17T17:57:26.437Z,22.95
2022-08-17T18:00:03.514Z,24.13
2022-08-17T18:03:09.712Z,30.08
2022-08-17T18:06:06.145Z,29.83
2022-08-17T18:09:09.238Z,30.35
2022-08-17T18:11:59.509Z,28.40
2022-08-17T18:14:46.405Z,29.88
2022-08-17T18:17:14.550Z,29.30
2022-08-17T18:19:41.552Z,29.15
2022-08-17T18:22:19.290Z,29.20
2022-08-17T18:24:55.766Z,29.85
2022-08-17T18:27:28.602Z,30.08
2022-08-17T18:29:57.575Z,28.70
2022-08-17T18:32:31.910Z,28.30
2022-08-17T18:35:14.299Z,28.52
2022-08-17T18:37:45.459Z,27.65
2022-08-17T18:40:19.595Z,28.88
2022-08-17T18:43:02.991Z,28.40
2022-08-17T18:45:49.736Z,28.88
2022-08-17T18:48:36.085Z,28.65
2022-08-17T18:51:42.426Z,28.58
2022-08-17T18:54:18.341Z,28.02
2022-08-17T18:56:52.805Z,29.00
2022-08-17T18:59:41.306Z,28.85
2022-08-17T19:02:20.638Z,27.73
2022-08-17T19:05:04.387Z,28.00
2022-08-17T19:07:35.591Z,27.13
2022-08-17T19:10:12.057Z,26.70
2022-08-17T19:12:46.038Z,24.88
2022-08-17T19:15:16.595Z,25.30
2022-08-17T19:17:59.399Z,22.95
2022-08-17T19:20:38.209Z,24.23
2022-08-17T19:23:29.231Z,24.75
2022-08-17T19:26:01.645Z,25.65
2022-08-17T19:28:36.991Z,25.42
2022-08-17T19:31:20.624Z,26.00
2022-08-17T19:33:48.144Z,26.23
2022-08-17T19:36:25.650Z,24.00
2022-08-17T19:39:38.020Z,24.90
2022-08-17T19:42:21.536Z,23.13
2022-08-17T19:45:08.891Z,27.50
2022-08-17T19:47:59.493Z,24.60
2022-08-17T19:50:57.799Z,25.83
2022-08-17T19:54:01.815Z,27.35
2022-08-17T19:56:47.538Z,25.95
2022-08-17T19:59:49.027Z,25.33
2022-08-17T20:02:33.063Z,24.00
2022-08-17T20:05:05.460Z,24.95
2022-08-17T20:08:00.329Z,23.83
2022-08-17T20:10:40.468Z,23.85
2022-08-17T20:13:17.172Z,24.50
2022-08-17T20:15:45.113Z,24.08
2022-08-17T20:18:25.589Z,25.02
2022-08-17T20:20:59.721Z,25.50
2022-08-17T20:23:39.995Z,25.08
2022-08-17T20:26:33.805Z,26.60
2022-08-17T20:29:16.729Z,26.83
2022-08-17T20:31:55.906Z,32.42
2022-08-17T20:34:33.426Z,29.05
2022-08-17T20:37:07.820Z,28.80
2022-08-17T20:39:46.806Z,29.00
2022-08-17T20:42:19.856Z,27.88
2022-08-17T20:44:57.700Z,26.50
2022-08-17T20:47:29.305Z,24.70
2022-08-17T20:50:08.180Z,24.50
2022-08-17T20:52:50.870Z,24.85
2022-08-17T20:55:35.875Z,25.13
2022-08-17T20:58:22.988Z,25.65
2022-08-17T21:00:51.597Z,25.63
2022-08-17T21:03:24.389Z,28.15
2022-08-17T21:06:15.306Z,26.67
2022-08-17T21:08:57.633Z,27.38
2022-08-17T21:12:02.465Z,26.40
2022-08-17T21:14:42.124Z,26.35
2022-08-17T21:17:30.585Z,27.08
2022-08-17T21:20:21.158Z,27.83
2022-08-17T21:23:24.329Z,27.13
2022-08-17T21:26:17.473Z,27.10
2022-08-17T21:29:31.827Z,28.48
2022-08-17T21:32:00.657Z,26.90
2022-08-17T21:34:33.250Z,27.15
2022-08-17T21:37:18.813Z,28.02
2022-08-17T21:39:55.087Z,27.52
2022-08-17T21:42:29.759Z,28.35
2022-08-17T21:45:18.071Z,27.30
2022-08-17T21:47:50.487Z,27.77
2022-08-17T21:50:23.332Z,28.65
2022-08-17T21:52:54.081Z,26.95
2022-08-17T21:55:28.302Z,28.58
2022-08-17T21:58:14.645Z,29.05
2022-08-17T22:00:44.656Z,30.42
2022-08-17T22:03:24.346Z,29.05
2022-08-17T22:05:51.557Z,29.85
2022-08-17T22:08:22.061Z,27.83
2022-08-17T22:10:51.183Z,29.17
2022-08-17T22:13:18.010Z,30.05
2022-08-17T22:16:27.915Z,30.13
2022-08-17T22:18:54.086Z,30.33
2022-08-17T22:21:22.535Z,30.92
2022-08-17T22:24:21.383Z,31.52
2022-08-17T22:26:59.465Z,32.00
2022-08-17T22:29:54.354Z,31.63
2022-08-17T22:32:37.394Z,28.50
2022-08-17T22:35:28.880Z,30.20
2022-08-17T22:37:57.009Z,27.77
2022-08-17T22:40:33.332Z,31.58
2022-08-17T22:43:03.504Z,32.97
2022-08-17T22:45:31.231Z,31.13
2022-08-17T22:48:00.646Z,31.30
2022-08-17T22:50:31.496Z,31.70
2022-08-17T22:53:20.374Z,31.63
2022-08-17T22:56:11.450Z,31.85
2022-08-17T22:59:11.002Z,31.95
2022-08-17T23:01:39.187Z,33.03
2022-08-17T23:04:09.798Z,31.38
2022-08-17T23:06:39.405Z,32.05
2022-08-17T23:09:07.342Z,31.73
2022-08-17T23:11:49.062Z,31.40
2022-08-17T23:14:20.154Z,32.47
2022-08-17T23:16:49.024Z,31.80
2022-08-17T23:19:19.641Z,30.70
2022-08-17T23:21:46.899Z,32.10
2022-08-17T23:24:22.495Z,29.63
2022-08-17T23:26:49.574Z,33.47
2022-08-17T23:29:16.612Z,33.95
2022-08-17T23:31:43.426Z,32.88
2022-08-17T23:34:13.031Z,33.58
2022-08-17T23:36:40.143Z,33.03
2022-08-17T23:39:07.680Z,32.80
2022-08-17T23:41:38.353Z,32.60
2022-08-17T23:44:06.508Z,31.83
2022-08-17T23:46:34.477Z,32.63
2022-08-17T23:49:01.579Z,32.38
2022-08-17T23:51:34.590Z,33.63
2022-08-17T23:54:11.675Z,33.22
2022-08-17T23:56:46.579Z,33.58
2022-08-17T23:59:15.189Z,33.25
